createdAt,value
2022-10-04T00:02:24.423Z,9.6
2022-10-04T00:12:24.837Z,9.6
2022-10-04T00:22:25.629Z,9.6
2022-10-04T00:32:25.967Z,9.4
2022-10-04T00:42:26.152Z,9.5
2022-10-04T00:52:26.286Z,9.6
2022-10-04T01:02:27.151Z,9.6
2022-10-04T01:12:27.399Z,9.6
2022-10-04T01:22:27.454Z,9.6
2022-10-04T01:32:27.580Z,9.6
2022-10-04T01:42:28.511Z,9.6
2022-10-04T01:52:29.164Z,9.7
2022-10-04T02:02:29.401Z,9.7
2022-10-04T02:12:29.566Z,9.7
2022-10-04T02:22:30.453Z,9.7
2022-10-04T02:42:31.386Z,9.4
2022-10-04T03:02:32.793Z,9.4
2022-10-04T03:12:33.501Z,9.5
2022-10-04T03:22:34.377Z,9.5
2022-10-04T03:32:34.723Z,9.3
2022-10-04T03:42:35.303Z,9.3
2022-10-04T04:02:36.548Z,9
2022-10-04T04:12:37.297Z,8.9
2022-10-04T04:22:37.391Z,8.6
2022-10-04T04:32:37.897Z,8.7
2022-10-04T04:42:38.114Z,8.7
2022-10-04T04:52:39.077Z,8.6
2022-10-04T05:02:39.765Z,8.6
2022-10-04T05:22:40.734Z,8.6
2022-10-04T05:32:41.659Z,8.5
2022-10-04T05:52:42.983Z,8.5
2022-10-04T06:02:43.556Z,8.5
2022-10-04T06:12:44.706Z,8.6
2022-10-04T06:22:45.353Z,8.8
2022-10-04T06:32:45.978Z,9.1
2022-10-04T06:42:46.622Z,9.3
2022-10-04T06:52:47.062Z,9.8
2022-10-04T07:02:47.755Z,10.2
2022-10-04T07:12:47.916Z,11.4
2022-10-04T07:22:48.120Z,12.2
2022-10-04T07:32:48.858Z,12.3
2022-10-04T07:42:49.173Z,12.5
2022-10-04T07:52:49.576Z,12.3
2022-10-04T08:02:50.007Z,12.5
2022-10-04T08:12:50.660Z,12.6
2022-10-04T08:22:50.876Z,12.7
2022-10-04T08:32:51.246Z,13.5
2022-10-04T08:42:52.140Z,14.9
2022-10-04T08:52:52.317Z,15.2
2022-10-04T09:02:52.690Z,16.2
2022-10-04T09:12:53.397Z,16.7
2022-10-04T09:22:54.124Z,17
2022-10-04T09:32:54.220Z,17
2022-10-04T09:42:54.466Z,16.4
2022-10-04T09:52:54.625Z,16.6
2022-10-04T10:12:55.582Z,17.5
2022-10-04T10:32:56.162Z,17.5
2022-10-04T10:42:56.678Z,18.1
2022-10-04T10:52:57.251Z,18
2022-10-04T11:03:12.031Z,18.3
2022-10-04T11:12:58.436Z,18.9
2022-10-04T11:22:59.163Z,18.8
2022-10-04T11:32:59.485Z,18.8
2022-10-04T11:42:59.771Z,19.1
2022-10-04T11:53:00.584Z,19.4
2022-10-04T12:03:00.939Z,19.3
2022-10-04T12:13:01.527Z,18.9
2022-10-04T12:23:02.039Z,19.2
2022-10-04T12:33:02.898Z,19.6
2022-10-04T12:43:03.731Z,19.5
2022-10-04T12:53:04.266Z,19.5
2022-10-04T13:03:04.637Z,19.6
2022-10-04T13:13:05.476Z,19.9
2022-10-04T13:23:06.046Z,19.4
2022-10-04T13:33:06.794Z,19.8
2022-10-04T13:43:06.842Z,19.8
2022-10-04T13:53:07.835Z,19.8
2022-10-04T14:03:08.826Z,19.9
2022-10-04T14:23:09.860Z,19.9
2022-10-04T14:33:10.598Z,19.7
2022-10-04T14:43:10.693Z,19
2022-10-04T14:53:11.185Z,19
2022-10-04T15:03:11.907Z,19.3
2022-10-04T15:13:12.851Z,19
2022-10-04T15:23:12.982Z,18.9
2022-10-04T15:33:13.313Z,18.8
2022-10-04T15:43:14.060Z,18.7
2022-10-04T15:53:18.995Z,18.5
2022-10-04T16:13:15.139Z,18
2022-10-04T16:23:15.486Z,17.6
2022-10-04T16:43:16.517Z,16.9
2022-10-04T16:53:17.335Z,16.5
2022-10-04T17:03:18.049Z,16.1
2022-10-04T17:13:17.990Z,15.8
2022-10-04T17:23:18.049Z,15.4
2022-10-04T17:33:18.791Z,15.1
2022-10-04T17:43:19.539Z,14.8
2022-10-04T17:53:19.664Z,14.5
2022-10-04T18:03:20.483Z,14.1
2022-10-04T18:13:21.054Z,13.9
2022-10-04T18:23:21.892Z,13.4
2022-10-04T18:33:26.025Z,13.3
2022-10-04T18:53:23.050Z,12.9
2022-10-04T19:03:23.192Z,12.7
2022-10-04T19:13:24.101Z,12.5
2022-10-04T19:23:24.953Z,12.5
2022-10-04T19:33:25.027Z,12.5
2022-10-04T19:43:25.978Z,12.4
2022-10-04T19:53:26.133Z,12.3
2022-10-04T20:03:27.189Z,12.2
2022-10-04T20:13:27.421Z,12.1
2022-10-04T20:23:28.150Z,12
2022-10-04T20:33:29.874Z,11.9
2022-10-04T20:43:29.536Z,12
2022-10-04T21:03:30.595Z,12.2
2022-10-04T21:13:31.037Z,12.4
2022-10-04T21:33:32.957Z,12.6
2022-10-04T21:43:33.401Z,12.6
2022-10-04T21:53:33.465Z,12.6
2022-10-04T22:03:33.926Z,12.7
2022-10-04T22:13:41.458Z,12.7
2022-10-04T22:23:34.812Z,12.6
2022-10-04T22:33:34.930Z,12.5
2022-10-04T22:43:35.222Z,12.5
2022-10-04T22:53:36.224Z,12.4
2022-10-04T23:03:37.138Z,12.2
2022-10-04T23:13:37.604Z,12.3
2022-10-04T23:23:38.283Z,12.3
2022-10-04T23:33:38.318Z,12.2
2022-10-04T23:43:38.917Z,12
2022-10-04T23:43:44.164Z,12
2022-10-04T23:53:45.170Z,12.2
